Lake Pleasant, Massachusetts
Current Conditions -  °F | °C
As of 12:52 PM on Saturday 25 Oct 2014 (Local Time) from KORE Reporting Station
Clear Clear  
Wind Chill: 60°   Ceiling: Unl
Heat Index: 60°   Visibility: 10mi
Dew Point: 39°   Wind: 7mph
Humidity: 46%   Direction: NA
Pressure: 29.7"   Gusts: NA
Location:  42.56°N, 72.52°W
Report Text: KORE 251652Z AUTO VRB06KT 10SM CLR 16/04 A2970 RMK AO2 SLP058 T01560039
Loading
Personal Weather Stations






























Interactive Weather Map
Tropical Storm Tracking
New forecast layout! Learn more

10-Day Weather Forecast

Advertisements
Track Severe Weather on mobile